createdAt,value
2023-04-14T00:00:06.433Z,2.70
2023-04-14T00:03:14.280Z,2.30
2023-04-14T00:06:16.286Z,2.50
2023-04-14T00:09:18.056Z,2.23
2023-04-14T00:12:19.749Z,2.50
2023-04-14T00:15:22.337Z,2.20
2023-04-14T00:18:24.142Z,2.10
2023-04-14T00:21:27.027Z,1.83
2023-04-14T00:24:28.779Z,2.73
2023-04-14T00:27:31.112Z,2.37
2023-04-14T00:30:32.882Z,1.73
2023-04-14T00:33:34.571Z,2.30
2023-04-14T00:36:36.954Z,2.20
2023-04-14T00:39:38.625Z,2.37
2023-04-14T00:42:47.786Z,2.13
2023-04-14T00:45:50.797Z,2.57
2023-04-14T00:48:52.527Z,2.13
2023-04-14T00:51:54.722Z,2.63
2023-04-14T00:54:56.681Z,2.30
2023-04-14T00:57:58.364Z,2.10
2023-04-14T01:01:00.187Z,3.03
2023-04-14T01:04:03.045Z,2.37
2023-04-14T01:07:04.814Z,2.90
2023-04-14T01:10:07.364Z,1.73
2023-04-14T01:13:24.092Z,1.73
2023-04-14T01:16:33.108Z,2.37
2023-04-14T01:19:41.632Z,2.13
2023-04-14T01:23:07.873Z,2.37
2023-04-14T01:26:29.363Z,1.83
2023-04-14T01:30:08.535Z,2.00
2023-04-14T01:33:15.541Z,1.93
2023-04-14T01:36:33.124Z,2.00
2023-04-14T01:39:47.067Z,2.00
2023-04-14T01:42:56.347Z,2.20
2023-04-14T01:46:03.749Z,1.90
2023-04-14T01:49:06.579Z,2.17
2023-04-14T01:52:11.181Z,1.80
2023-04-14T01:55:18.388Z,2.07
2023-04-14T01:58:21.840Z,2.37
2023-04-14T02:01:27.870Z,1.90
2023-04-14T02:04:39.004Z,2.13
2023-04-14T02:07:42.196Z,2.50
2023-04-14T02:10:48.903Z,2.43
2023-04-14T02:13:52.669Z,1.70
2023-04-14T02:16:57.228Z,1.80
2023-04-14T02:20:00.925Z,2.00
2023-04-14T02:23:02.706Z,1.80
2023-04-14T02:26:12.975Z,2.43
2023-04-14T02:29:20.713Z,1.70
2023-04-14T02:32:29.454Z,1.97
2023-04-14T02:35:39.817Z,1.97
2023-04-14T02:39:12.613Z,2.03
2023-04-14T02:42:21.468Z,1.60
2023-04-14T02:45:28.995Z,1.90
2023-04-14T02:48:38.572Z,2.07
2023-04-14T02:51:46.665Z,2.67
2023-04-14T02:54:58.414Z,1.97
2023-04-14T02:58:07.166Z,1.90
2023-04-14T03:01:28.056Z,1.97
2023-04-14T03:04:37.970Z,2.40
2023-04-14T03:08:01.664Z,2.03
2023-04-14T03:11:07.901Z,1.83
2023-04-14T03:14:11.388Z,1.53
2023-04-14T03:17:17.829Z,1.80
2023-04-14T03:20:23.725Z,2.07
2023-04-14T03:23:29.421Z,1.90
2023-04-14T03:26:45.056Z,2.57
2023-04-14T03:30:27.051Z,1.70
2023-04-14T03:33:50.583Z,2.40
2023-04-14T03:37:00.877Z,2.70
2023-04-14T03:40:16.154Z,2.00
2023-04-14T03:43:32.730Z,2.23
2023-04-14T03:46:44.455Z,1.80
2023-04-14T03:49:53.866Z,1.60
2023-04-14T03:53:03.194Z,2.00
2023-04-14T03:56:07.536Z,2.20
2023-04-14T03:59:16.996Z,2.17
2023-04-14T04:02:22.483Z,1.77
2023-04-14T04:05:25.152Z,2.43
2023-04-14T04:08:29.160Z,1.57
2023-04-14T04:11:34.208Z,2.20
2023-04-14T04:14:42.440Z,2.33
2023-04-14T04:17:51.461Z,2.13
2023-04-14T04:20:57.884Z,2.03
2023-04-14T04:24:03.724Z,2.00
2023-04-14T04:27:11.954Z,1.93
2023-04-14T04:30:25.269Z,1.97
2023-04-14T04:33:30.704Z,2.27
2023-04-14T04:36:44.173Z,2.10
2023-04-14T04:39:52.490Z,2.13
2023-04-14T04:42:56.406Z,1.80
2023-04-14T04:46:14.908Z,2.17
2023-04-14T04:49:24.596Z,1.77
2023-04-14T04:52:40.625Z,1.97
2023-04-14T04:55:46.012Z,2.17
2023-04-14T04:58:49.237Z,2.20
2023-04-14T05:01:51.629Z,3.17
2023-04-14T05:05:00.400Z,2.90
2023-04-14T05:08:15.386Z,3.30
2023-04-14T05:11:36.274Z,2.83
2023-04-14T05:14:38.878Z,2.40
2023-04-14T05:17:41.663Z,2.30
2023-04-14T05:20:43.885Z,2.90
2023-04-14T05:23:47.334Z,3.23
2023-04-14T05:27:12.510Z,2.93
2023-04-14T05:30:17.633Z,3.20
2023-04-14T05:33:22.900Z,3.23
2023-04-14T05:36:26.059Z,2.97
2023-04-14T05:39:29.600Z,2.90
2023-04-14T05:42:32.659Z,2.90
2023-04-14T05:45:35.828Z,3.17
2023-04-14T05:48:45.984Z,2.40
2023-04-14T05:52:24.153Z,2.80
2023-04-14T05:55:31.389Z,3.20
2023-04-14T05:58:40.314Z,3.17
2023-04-14T06:01:42.947Z,4.37
2023-04-14T06:04:45.428Z,4.20
2023-04-14T06:07:55.180Z,3.27
2023-04-14T06:10:57.722Z,4.07
2023-04-14T06:14:10.001Z,4.43
2023-04-14T06:17:14.712Z,3.20
2023-04-14T06:20:26.154Z,5.20
2023-04-14T06:23:28.794Z,3.37
2023-04-14T06:26:34.493Z,2.47
2023-04-14T06:29:37.256Z,2.60
2023-04-14T06:32:41.527Z,2.50
2023-04-14T06:35:44.132Z,3.00
2023-04-14T06:38:46.390Z,3.03
2023-04-14T06:41:50.509Z,3.47
2023-04-14T06:44:53.944Z,3.57
2023-04-14T06:47:56.364Z,3.73
2023-04-14T06:50:58.764Z,3.97
2023-04-14T06:54:01.792Z,4.10
2023-04-14T06:57:04.614Z,3.60
2023-04-14T07:00:07.677Z,3.60
2023-04-14T07:03:09.832Z,4.13
2023-04-14T07:06:17.706Z,3.83
2023-04-14T07:09:21.505Z,3.07
2023-04-14T07:12:23.576Z,3.80
2023-04-14T07:15:25.897Z,3.60
2023-04-14T07:18:28.503Z,3.70
2023-04-14T07:21:32.134Z,3.47
2023-04-14T07:24:36.346Z,4.10
2023-04-14T07:27:38.234Z,3.53
2023-04-14T07:30:40.091Z,3.73
2023-04-14T07:33:41.945Z,3.97
2023-04-14T07:36:43.926Z,3.17
2023-04-14T07:39:45.736Z,3.33
2023-04-14T07:42:47.913Z,4.03
2023-04-14T07:45:49.886Z,3.20
2023-04-14T07:48:54.963Z,3.77
2023-04-14T07:52:02.477Z,4.10
2023-04-14T07:55:05.267Z,3.90
2023-04-14T07:58:07.331Z,3.97
2023-04-14T08:01:09.360Z,4.33
2023-04-14T08:04:11.867Z,2.73
2023-04-14T08:07:13.806Z,4.20
2023-04-14T08:10:15.892Z,4.53
2023-04-14T08:13:17.876Z,4.60
2023-04-14T08:16:20.280Z,4.20
2023-04-14T08:19:22.566Z,4.07
2023-04-14T08:22:25.591Z,3.90
2023-04-14T08:25:27.810Z,4.20
2023-04-14T08:28:29.975Z,3.10
2023-04-14T08:31:33.390Z,2.90
2023-04-14T08:34:35.276Z,3.47
2023-04-14T08:37:37.088Z,2.07
2023-04-14T08:40:40.819Z,2.73
2023-04-14T08:43:43.001Z,2.20
2023-04-14T08:46:47.000Z,2.63
2023-04-14T08:50:21.746Z,2.10
2023-04-14T08:53:25.367Z,2.53
2023-04-14T08:56:36.136Z,2.67
2023-04-14T08:59:38.928Z,2.37
2023-04-14T09:02:41.672Z,2.83
2023-04-14T09:05:44.563Z,2.73
2023-04-14T09:08:46.614Z,1.97
2023-04-14T09:11:49.495Z,2.23
2023-04-14T09:14:53.353Z,2.27
2023-04-14T09:17:55.700Z,2.77
2023-04-14T09:21:30.427Z,2.63
2023-04-14T09:24:23.701Z,2.67
2023-04-14T09:27:26.813Z,1.70
2023-04-14T09:30:31.607Z,2.00
2023-04-14T09:33:38.164Z,1.80
2023-04-14T09:36:41.807Z,1.90
2023-04-14T09:39:51.838Z,1.10
2023-04-14T09:42:54.155Z,1.67
2023-04-14T09:45:57.324Z,1.30
2023-04-14T09:49:00.349Z,1.57
2023-04-14T09:52:09.419Z,1.30
2023-04-14T09:55:13.703Z,1.33
2023-04-14T09:58:23.050Z,1.53
2023-04-14T10:01:31.346Z,1.43
2023-04-14T10:04:33.738Z,1.57
2023-04-14T10:07:41.868Z,1.33
2023-04-14T10:10:45.469Z,1.23
2023-04-14T10:13:55.754Z,1.33
2023-04-14T10:16:57.491Z,1.17
2023-04-14T10:20:00.347Z,0.93
2023-04-14T10:23:06.132Z,1.30
2023-04-14T10:26:09.819Z,0.80
2023-04-14T10:29:12.402Z,1.13
2023-04-14T10:32:16.457Z,1.40
2023-04-14T10:35:20.676Z,1.60
2023-04-14T10:38:22.718Z,1.13
2023-04-14T10:41:25.011Z,1.43
2023-04-14T10:44:32.597Z,0.97
2023-04-14T10:47:39.751Z,1.50
2023-04-14T10:50:48.927Z,1.67
2023-04-14T10:53:54.394Z,1.63
2023-04-14T10:57:11.267Z,1.33
2023-04-14T11:00:23.654Z,1.53
2023-04-14T11:03:32.752Z,1.40
2023-04-14T11:06:47.216Z,1.40
2023-04-14T11:09:49.902Z,1.70
2023-04-14T11:13:06.982Z,1.57
2023-04-14T11:16:09.297Z,1.50
2023-04-14T11:19:15.425Z,1.50
2023-04-14T11:22:41.390Z,1.60
2023-04-14T11:25:43.851Z,1.20
2023-04-14T11:28:46.867Z,1.40
2023-04-14T11:32:05.338Z,1.70
2023-04-14T11:35:08.263Z,1.70
2023-04-14T11:38:11.350Z,1.70
2023-04-14T11:41:15.963Z,1.87
2023-04-14T11:44:19.420Z,1.33
2023-04-14T11:47:22.331Z,1.67
2023-04-14T11:50:24.578Z,1.20
2023-04-14T11:53:27.298Z,1.23
2023-04-14T11:56:31.804Z,1.70
2023-04-14T11:59:42.139Z,1.70
2023-04-14T12:02:45.518Z,1.90
2023-04-14T12:05:48.976Z,2.23
2023-04-14T12:08:57.053Z,2.10
2023-04-14T12:11:59.030Z,1.63
2023-04-14T12:15:02.810Z,1.60
2023-04-14T12:18:08.733Z,1.45
2023-04-14T12:21:12.030Z,1.30
2023-04-14T12:24:16.892Z,1.63
2023-04-14T12:27:25.733Z,1.40
2023-04-14T12:30:27.652Z,1.75
2023-04-14T12:33:31.017Z,1.63
2023-04-14T12:36:48.622Z,1.67
2023-04-14T12:40:00.916Z,1.77
2023-04-14T12:43:05.663Z,1.70
2023-04-14T12:46:07.980Z,1.67
2023-04-14T12:49:38.688Z,1.53
2023-04-14T12:52:40.970Z,1.13
2023-04-14T12:55:43.166Z,2.08
2023-04-14T12:58:48.892Z,1.48
2023-04-14T13:01:50.930Z,1.75
2023-04-14T13:04:52.755Z,1.98
2023-04-14T13:07:54.729Z,1.67
2023-04-14T13:10:56.711Z,1.17
2023-04-14T13:13:58.653Z,1.33
2023-04-14T13:17:00.551Z,1.48
2023-04-14T13:20:02.395Z,1.88
2023-04-14T13:23:04.373Z,1.15
2023-04-14T13:26:06.507Z,1.17
2023-04-14T13:29:08.442Z,1.33
2023-04-14T13:32:11.147Z,1.33
2023-04-14T13:35:13.610Z,1.30
2023-04-14T13:38:15.421Z,1.58
2023-04-14T13:41:19.530Z,1.52
2023-04-14T13:44:21.423Z,1.38
2023-04-14T13:47:25.570Z,1.55
2023-04-14T13:50:27.660Z,1.27
2023-04-14T13:53:29.484Z,1.70
2023-04-14T13:56:31.422Z,1.38
2023-04-14T13:59:34.083Z,1.05
2023-04-14T14:02:39.604Z,1.23
2023-04-14T14:05:41.477Z,1.52
2023-04-14T14:08:43.776Z,1.25
2023-04-14T14:11:46.932Z,8.10
2023-04-14T14:14:48.823Z,2.20
2023-04-14T14:17:53.182Z,1.65
2023-04-14T14:20:55.225Z,1.80
2023-04-14T14:23:57.597Z,1.45
2023-04-14T14:26:59.607Z,1.00
2023-04-14T14:30:01.562Z,1.40
2023-04-14T14:33:04.229Z,1.45
2023-04-14T14:36:06.782Z,1.45
2023-04-14T14:39:09.250Z,1.65
2023-04-14T14:42:11.722Z,1.70
2023-04-14T14:45:13.683Z,1.13
2023-04-14T14:48:16.534Z,1.73
2023-04-14T14:51:18.345Z,1.20
2023-04-14T14:54:20.244Z,1.73
2023-04-14T14:57:22.508Z,1.50
2023-04-14T15:00:24.279Z,1.35
2023-04-14T15:03:26.290Z,1.52
2023-04-14T15:06:28.564Z,1.63
2023-04-14T15:09:30.808Z,1.23
2023-04-14T15:12:32.697Z,1.42
2023-04-14T15:15:35.412Z,1.20
2023-04-14T15:18:37.412Z,1.15
2023-04-14T15:21:39.431Z,1.38
2023-04-14T15:24:41.749Z,1.90
2023-04-14T15:27:44.140Z,1.52
2023-04-14T15:30:46.087Z,1.58
2023-04-14T15:33:47.919Z,1.67
2023-04-14T15:36:49.719Z,1.27
2023-04-14T15:39:51.668Z,1.30
2023-04-14T15:42:53.391Z,1.35
2023-04-14T15:45:57.779Z,1.10
2023-04-14T15:48:59.532Z,1.40
2023-04-14T15:52:01.652Z,1.80
2023-04-14T15:55:03.966Z,1.27
2023-04-14T15:58:05.742Z,1.20
2023-04-14T16:01:08.056Z,1.63
2023-04-14T16:04:10.282Z,1.60
2023-04-14T16:07:12.247Z,1.27
2023-04-14T16:10:14.522Z,1.85
2023-04-14T16:13:16.905Z,1.60
2023-04-14T16:16:19.066Z,1.50
2023-04-14T16:19:21.712Z,1.50
2023-04-14T16:22:23.675Z,2.00
2023-04-14T16:25:28.772Z,1.90
2023-04-14T16:28:30.834Z,1.52
2023-04-14T16:31:32.847Z,1.77
2023-04-14T16:34:35.436Z,1.45
2023-04-14T16:37:40.033Z,1.30
2023-04-14T16:40:42.938Z,1.23
2023-04-14T16:43:44.876Z,1.75
2023-04-14T16:46:46.707Z,2.28
2023-04-14T16:49:51.843Z,1.00
2023-04-14T16:52:53.925Z,1.17
2023-04-14T16:56:03.662Z,1.08
2023-04-14T16:59:07.122Z,1.50
2023-04-14T17:02:09.234Z,1.10
2023-04-14T17:05:13.228Z,1.40
2023-04-14T17:08:15.473Z,1.17
2023-04-14T17:11:17.319Z,1.57
2023-04-14T17:14:19.578Z,1.50
2023-04-14T17:17:21.468Z,1.60
2023-04-14T17:20:23.304Z,1.67
2023-04-14T17:23:25.208Z,1.47
2023-04-14T17:26:27.130Z,3.60
2023-04-14T17:29:29.664Z,1.70
2023-04-14T17:32:32.420Z,1.30
2023-04-14T17:35:35.294Z,1.63
2023-04-14T17:38:38.726Z,1.83
2023-04-14T17:41:40.598Z,1.10
2023-04-14T17:44:42.812Z,1.60
2023-04-14T17:47:44.800Z,1.10
2023-04-14T17:50:47.046Z,1.13
2023-04-14T17:53:49.008Z,1.27
2023-04-14T17:56:51.025Z,4.53
2023-04-14T17:59:53.932Z,1.73
2023-04-14T18:02:55.872Z,1.80
2023-04-14T18:05:57.857Z,2.57
2023-04-14T18:08:59.774Z,1.80
2023-04-14T18:12:01.902Z,2.17
2023-04-14T18:15:05.394Z,1.50
2023-04-14T18:18:07.547Z,2.43
2023-04-14T18:21:10.315Z,1.90
2023-04-14T18:30:22.656Z,1.77
2023-04-14T18:33:28.162Z,1.30
2023-04-14T18:36:30.562Z,1.50
2023-04-14T18:39:36.634Z,1.73
2023-04-14T18:42:39.003Z,1.90
2023-04-14T18:45:47.928Z,2.03
2023-04-14T18:48:49.982Z,1.73
2023-04-14T18:51:53.642Z,1.80
2023-04-14T18:54:55.987Z,1.73
2023-04-14T18:57:59.112Z,2.47
2023-04-14T19:01:00.932Z,2.27
2023-04-14T19:04:03.081Z,2.83
2023-04-14T19:07:05.527Z,2.43
2023-04-14T19:10:08.005Z,2.63
2023-04-14T19:13:11.130Z,2.47
2023-04-14T19:16:16.427Z,2.77
2023-04-14T19:19:21.189Z,3.13
2023-04-14T19:22:23.132Z,4.67
2023-04-14T19:25:25.037Z,3.53
2023-04-14T19:28:28.031Z,2.73
2023-04-14T19:31:29.937Z,2.80
2023-04-14T19:34:32.062Z,3.03
2023-04-14T19:37:34.498Z,2.67
2023-04-14T19:40:37.025Z,2.47
2023-04-14T19:43:39.317Z,2.67
2023-04-14T19:46:42.264Z,2.50
2023-04-14T19:49:44.173Z,3.00
2023-04-14T19:52:48.546Z,3.17
2023-04-14T19:55:53.628Z,3.50
2023-04-14T19:58:55.472Z,3.07
2023-04-14T20:01:57.385Z,2.93
2023-04-14T20:05:01.343Z,4.07
2023-04-14T20:08:03.530Z,3.87
2023-04-14T20:11:05.380Z,3.57
2023-04-14T20:14:07.418Z,2.70
2023-04-14T20:17:09.276Z,3.33
2023-04-14T20:20:13.128Z,3.80
2023-04-14T20:23:15.565Z,3.97
2023-04-14T20:26:17.577Z,3.97
2023-04-14T20:29:19.606Z,3.43
2023-04-14T20:32:21.448Z,4.27
2023-04-14T20:35:23.376Z,5.10
2023-04-14T20:38:25.120Z,4.63
2023-04-14T20:41:27.219Z,5.93
2023-04-14T20:44:29.068Z,5.30
2023-04-14T20:47:31.127Z,4.97
2023-04-14T20:50:33.509Z,5.57
2023-04-14T20:53:35.918Z,5.13
2023-04-14T20:56:38.009Z,4.23
2023-04-14T20:59:40.122Z,4.10
2023-04-14T21:02:43.450Z,4.20
2023-04-14T21:05:46.362Z,4.00
2023-04-14T21:08:48.383Z,3.17
2023-04-14T21:12:15.411Z,2.93
2023-04-14T21:15:48.985Z,2.77
2023-04-14T21:18:37.755Z,2.67
2023-04-14T21:21:39.938Z,2.30
2023-04-14T21:24:46.620Z,2.70
2023-04-14T21:27:48.467Z,2.47
2023-04-14T21:30:50.460Z,2.53
2023-04-14T21:33:52.765Z,2.60
2023-04-14T21:36:54.814Z,2.60
2023-04-14T21:39:58.864Z,2.70
2023-04-14T21:43:03.905Z,2.90
2023-04-14T21:46:06.238Z,3.07
2023-04-14T21:49:08.269Z,3.07
2023-04-14T21:52:10.257Z,3.40
2023-04-14T21:55:12.340Z,3.60
2023-04-14T21:58:14.314Z,2.87
2023-04-14T22:01:16.274Z,3.13
2023-04-14T22:04:28.819Z,3.13
2023-04-14T22:07:37.640Z,3.20
2023-04-14T22:10:43.205Z,3.43
2023-04-14T22:13:45.354Z,3.33
2023-04-14T22:16:47.527Z,3.70
2023-04-14T22:19:49.516Z,3.40
2023-04-14T22:22:51.372Z,3.37
2023-04-14T22:25:53.247Z,3.50
2023-04-14T22:28:55.413Z,3.60
2023-04-14T22:31:57.352Z,3.23
2023-04-14T22:34:59.215Z,3.40
2023-04-14T22:38:01.504Z,3.30
2023-04-14T22:41:03.517Z,3.27
2023-04-14T22:44:06.628Z,3.73
2023-04-14T22:47:08.549Z,3.23
2023-04-14T22:50:10.693Z,2.97
2023-04-14T22:53:12.713Z,3.13
2023-04-14T22:56:14.857Z,3.20
2023-04-14T22:59:16.894Z,3.00
2023-04-14T23:02:18.939Z,2.83
2023-04-14T23:05:21.211Z,2.73
2023-04-14T23:08:25.288Z,3.60
2023-04-14T23:11:27.736Z,3.10
2023-04-14T23:14:29.727Z,3.17
2023-04-14T23:17:33.089Z,2.57
2023-04-14T23:20:35.375Z,2.83
2023-04-14T23:23:37.422Z,3.07
2023-04-14T23:26:39.519Z,2.97
2023-04-14T23:29:41.547Z,3.10
2023-04-14T23:32:44.838Z,2.80
2023-04-14T23:35:46.682Z,2.70
2023-04-14T23:38:49.048Z,2.73
2023-04-14T23:41:51.162Z,2.90
2023-04-14T23:44:53.036Z,2.60
2023-04-14T23:47:55.323Z,2.37
2023-04-14T23:50:59.618Z,2.73
2023-04-14T23:54:16.127Z,3.07
2023-04-14T23:57:18.221Z,3.07
